Time;durP1;ratioP1;P1;durP2;ratioP2;P2;SDS_P1;SDS_P2;PMS_P1;PMS_P2;Temp;Humidity;BMP_temperature;BMP_pressure;BME280_temperature;BME280_humidity;BME280_pressure;Samples;Min_cycle;Max_cycle;Signal;HPM_P1;HPM_P2
2023/10/28 00:02:23;;;;;;;15.95;6.75;;;;;;;;;;5095487;28;20020;-28
2023/10/28 00:04:48;;;;;;;14.50;6.93;;;;;;;;;;5113914;28;20011;-28
2023/10/28 00:07:13;;;;;;;14.77;6.17;;;;;;;;;;5114252;28;20116;-28
2023/10/28 00:09:40;;;;;;;12.67;6.63;;;;;;;;;;5114216;28;20249;-28
2023/10/28 00:12:08;;;;;;;14.63;6.80;;;;;;;;;;5113756;28;20269;-28
2023/10/28 00:14:33;;;;;;;12.93;6.70;;;;;;;;;;5113862;28;20386;-28
2023/10/28 00:16:58;;;;;;;13.43;6.57;;;;;;;;;;5113583;28;20015;-28
2023/10/28 00:19:24;;;;;;;12.17;5.97;;;;;;;;;;5114034;28;20257;-28
2023/10/28 00:21:49;;;;;;;18.58;7.18;;;;;;;;;;5113770;28;20259;-28
2023/10/28 00:24:14;;;;;;;13.87;6.70;;;;;;;;;;5113507;28;20464;-28
2023/10/28 00:26:40;;;;;;;13.40;6.37;;;;;;;;;;5113479;28;20337;-28
2023/10/28 00:29:05;;;;;;;13.27;6.25;;;;;;;;;;5113715;28;20256;-29
2023/10/28 00:31:31;;;;;;;14.02;6.50;;;;;;;;;;5113355;28;20478;-29
2023/10/28 00:33:56;;;;;;;13.02;6.47;;;;;;;;;;5113670;28;20088;-28
2023/10/28 00:36:22;;;;;;;15.98;6.55;;;;;;;;;;5113694;28;20421;-29
2023/10/28 00:38:47;;;;;;;15.38;6.57;;;;;;;;;;5098724;28;20110;-28
2023/10/28 00:41:13;;;;;;;14.00;6.27;;;;;;;;;;5117818;28;20019;-29
2023/10/28 00:43:39;;;;;;;12.48;6.15;;;;;;;;;;5117211;28;20257;-28
2023/10/28 00:46:07;;;;;;;18.92;6.97;;;;;;;;;;5117119;28;20153;-28
2023/10/28 00:48:32;;;;;;;13.82;6.60;;;;;;;;;;5117884;28;20024;-31
2023/10/28 00:50:58;;;;;;;13.23;6.72;;;;;;;;;;5116954;28;20089;-32
2023/10/28 00:53:24;;;;;;;15.80;6.70;;;;;;;;;;5117290;28;20458;-32
2023/10/28 00:55:51;;;;;;;18.15;6.90;;;;;;;;;;5117001;28;20024;-31
2023/10/28 00:58:17;;;;;;;12.55;6.60;;;;;;;;;;5117179;28;20016;-33
2023/10/28 01:00:43;;;;;;;15.85;6.75;;;;;;;;;;5117390;28;20015;-31
2023/10/28 01:03:09;;;;;;;17.42;6.65;;;;;;;;;;5117094;28;20090;-32
2023/10/28 01:05:34;;;;;;;17.40;6.70;;;;;;;;;;5117063;28;20020;-31
2023/10/28 01:07:59;;;;;;;18.38;6.57;;;;;;;;;;5116763;28;20378;-31
2023/10/28 01:10:29;;;;;;;15.73;6.90;;;;;;;;;;5116564;28;20516;-32
2023/10/28 01:12:54;;;;;;;18.92;6.82;;;;;;;;;;5116730;28;20306;-31
2023/10/28 01:15:19;;;;;;;23.58;6.72;;;;;;;;;;5116519;28;20408;-32
2023/10/28 01:17:45;;;;;;;16.15;6.50;;;;;;;;;;5116550;28;20019;-32
2023/10/28 01:20:10;;;;;;;14.77;6.55;;;;;;;;;;5116703;28;20022;-31
2023/10/28 01:22:36;;;;;;;18.17;6.72;;;;;;;;;;5116402;28;20020;-32
2023/10/28 01:25:01;;;;;;;12.95;6.45;;;;;;;;;;5116917;28;20099;-32
2023/10/28 01:27:26;;;;;;;15.77;6.70;;;;;;;;;;5116338;28;20016;-32
2023/10/28 01:29:51;;;;;;;15.13;6.72;;;;;;;;;;5116777;28;20257;-32
2023/10/28 01:32:16;;;;;;;13.95;6.70;;;;;;;;;;5116545;28;20027;-32
2023/10/28 01:34:47;;;;;;;17.02;6.72;;;;;;;;;;5116282;28;20023;-32
2023/10/28 01:37:12;;;;;;;24.48;7.47;;;;;;;;;;5116101;28;20020;-31
2023/10/28 01:39:38;;;;;;;24.10;7.28;;;;;;;;;;5116146;28;20007;-32
2023/10/28 01:42:04;;;;;;;15.15;7.55;;;;;;;;;;5116347;28;20031;-31
2023/10/28 01:44:34;;;;;;;17.50;7.47;;;;;;;;;;5116225;28;20107;-32
2023/10/28 01:46:59;;;;;;;15.98;7.65;;;;;;;;;;5115928;28;20020;-31
2023/10/28 01:49:24;;;;;;;21.77;7.03;;;;;;;;;;5116376;28;20072;-33
2023/10/28 01:51:49;;;;;;;18.83;7.35;;;;;;;;;;5115672;28;20328;-32
2023/10/28 01:54:14;;;;;;;21.40;7.93;;;;;;;;;;5115869;28;20011;-32
2023/10/28 01:56:39;;;;;;;18.00;7.95;;;;;;;;;;5115757;28;20016;-32
2023/10/28 01:59:05;;;;;;;18.23;7.70;;;;;;;;;;5115647;28;20016;-32
2023/10/28 02:01:30;;;;;;;18.20;7.87;;;;;;;;;;5115708;28;20252;-32
2023/10/28 02:03:56;;;;;;;19.65;8.00;;;;;;;;;;5116146;28;20256;-32
2023/10/28 02:06:21;;;;;;;17.73;7.50;;;;;;;;;;5115558;28;20039;-31
2023/10/28 02:08:46;;;;;;;20.67;7.67;;;;;;;;;;5115849;28;20370;-31
2023/10/28 02:11:11;;;;;;;17.65;7.88;;;;;;;;;;5115837;28;20277;-32
2023/10/28 02:13:36;;;;;;;21.43;8.43;;;;;;;;;;5115415;28;20020;-31
2023/10/28 02:16:01;;;;;;;20.83;7.83;;;;;;;;;;5115682;28;20016;-32
2023/10/28 02:18:27;;;;;;;21.90;8.48;;;;;;;;;;5115873;28;20519;-31
2023/10/28 02:20:54;;;;;;;24.15;8.68;;;;;;;;;;5115851;28;20027;-32
2023/10/28 02:23:19;;;;;;;19.33;8.77;;;;;;;;;;5115474;28;20476;-32
2023/10/28 02:25:45;;;;;;;21.27;8.43;;;;;;;;;;5115939;28;20098;-32
2023/10/28 02:28:10;;;;;;;20.80;8.75;;;;;;;;;;5115693;28;20024;-32
2023/10/28 02:30:37;;;;;;;21.83;10.43;;;;;;;;;;5096805;28;20554;-31
2023/10/28 02:33:02;;;;;;;19.58;9.50;;;;;;;;;;5115596;28;20031;-32
2023/10/28 02:35:27;;;;;;;25.70;9.35;;;;;;;;;;5115595;28;20024;-32
2023/10/28 02:37:52;;;;;;;25.27;9.45;;;;;;;;;;5114891;28;20474;-31
2023/10/28 02:40:18;;;;;;;33.03;10.00;;;;;;;;;;5115459;28;20043;-32
2023/10/28 02:42:44;;;;;;;23.80;10.02;;;;;;;;;;5115409;28;20265;-32
2023/10/28 02:45:09;;;;;;;19.48;9.75;;;;;;;;;;5114769;28;20020;-33
2023/10/28 02:47:34;;;;;;;16.83;9.18;;;;;;;;;;5115024;28;20032;-32
2023/10/28 02:50:00;;;;;;;22.30;9.75;;;;;;;;;;5114698;28;20067;-32
2023/10/28 02:52:25;;;;;;;22.70;9.80;;;;;;;;;;5115168;28;20094;-32
2023/10/28 02:54:50;;;;;;;26.88;9.98;;;;;;;;;;5114631;28;20095;-32
2023/10/28 02:57:16;;;;;;;22.27;9.48;;;;;;;;;;5114631;28;20068;-32
2023/10/28 02:59:41;;;;;;;21.73;10.37;;;;;;;;;;5114604;28;20015;-32
2023/10/28 03:02:06;;;;;;;23.93;10.27;;;;;;;;;;5114756;28;20256;-32
2023/10/28 03:04:31;;;;;;;28.20;10.20;;;;;;;;;;5114785;28;20688;-32
2023/10/28 03:06:57;;;;;;;22.48;9.60;;;;;;;;;;5114390;28;20024;-32
2023/10/28 03:09:22;;;;;;;29.05;11.38;;;;;;;;;;5114702;28;20024;-32
2023/10/28 03:11:47;;;;;;;19.60;10.20;;;;;;;;;;5114743;28;20016;-31
2023/10/28 03:14:12;;;;;;;18.57;9.83;;;;;;;;;;5114586;28;20253;-32
2023/10/28 03:16:38;;;;;;;20.67;10.60;;;;;;;;;;5114826;28;20241;-32
2023/10/28 03:19:03;;;;;;;25.15;9.43;;;;;;;;;;5114508;28;20374;-32
2023/10/28 03:21:29;;;;;;;17.53;9.30;;;;;;;;;;5114166;28;20080;-32
2023/10/28 03:23:54;;;;;;;25.08;9.50;;;;;;;;;;5114737;28;20281;-32
2023/10/28 03:26:19;;;;;;;24.90;9.67;;;;;;;;;;5114183;28;20011;-32
2023/10/28 03:28:44;;;;;;;21.03;9.13;;;;;;;;;;5114159;28;20285;-32
2023/10/28 03:31:10;;;;;;;18.33;8.73;;;;;;;;;;5114075;28;20024;-32
2023/10/28 03:33:38;;;;;;;20.40;8.75;;;;;;;;;;5113867;28;20265;-31
2023/10/28 03:36:09;;;;;;;20.63;8.52;;;;;;;;;;5113919;28;20373;-33
2023/10/28 03:38:34;;;;;;;18.73;8.38;;;;;;;;;;5113979;28;20016;-31
2023/10/28 03:41:05;;;;;;;21.75;8.23;;;;;;;;;;5114249;28;20035;-32
2023/10/28 03:43:30;;;;;;;21.10;8.38;;;;;;;;;;5114167;28;20016;-32
2023/10/28 03:45:56;;;;;;;17.65;7.90;;;;;;;;;;5114167;28;20361;-32
2023/10/28 03:48:21;;;;;;;25.10;8.63;;;;;;;;;;5113884;28;20020;-32
2023/10/28 03:50:55;;;;;;;22.90;8.20;;;;;;;;;;5113599;28;20385;-32
2023/10/28 03:53:20;;;;;;;16.67;7.40;;;;;;;;;;5113821;28;20024;-32
2023/10/28 03:55:45;;;;;;;26.13;8.00;;;;;;;;;;5113770;28;20377;-32
2023/10/28 03:58:10;;;;;;;18.87;7.80;;;;;;;;;;5113777;28;20019;-32
2023/10/28 04:00:36;;;;;;;22.23;7.90;;;;;;;;;;5114069;28;20015;-32
2023/10/28 04:03:01;;;;;;;19.10;8.10;;;;;;;;;;5114285;28;20042;-33
2023/10/28 04:05:27;;;;;;;17.95;7.22;;;;;;;;;;5113651;28;20094;-33
2023/10/28 04:07:52;;;;;;;24.05;7.30;;;;;;;;;;5113925;28;20407;-33
2023/10/28 04:10:18;;;;;;;18.60;7.20;;;;;;;;;;5114080;28;20035;-32
2023/10/28 04:12:43;;;;;;;15.82;6.82;;;;;;;;;;5115585;28;20249;-32
2023/10/28 04:15:11;;;;;;;12.57;6.53;;;;;;;;;;5118280;28;20142;-32
2023/10/28 04:17:36;;;;;;;16.48;6.60;;;;;;;;;;5117649;28;20254;-32
2023/10/28 04:20:03;;;;;;;17.47;6.37;;;;;;;;;;5117541;28;20014;-32
2023/10/28 04:22:28;;;;;;;15.02;6.03;;;;;;;;;;5117582;28;20245;-32
2023/10/28 04:24:54;;;;;;;14.82;6.07;;;;;;;;;;5117540;28;20011;-32
2023/10/28 04:27:19;;;;;;;16.83;6.35;;;;;;;;;;5117538;28;20027;-33
2023/10/28 04:29:45;;;;;;;16.30;6.35;;;;;;;;;;5117531;28;20016;-32
2023/10/28 04:32:10;;;;;;;16.65;5.85;;;;;;;;;;5117654;28;20102;-32
2023/10/28 04:34:35;;;;;;;15.07;6.22;;;;;;;;;;5117397;28;20023;-32
2023/10/28 04:37:00;;;;;;;14.03;5.63;;;;;;;;;;5117892;28;20024;-32
2023/10/28 04:39:26;;;;;;;13.43;5.90;;;;;;;;;;5117318;28;20245;-32
2023/10/28 04:41:52;;;;;;;12.97;5.70;;;;;;;;;;5117817;28;20325;-32
2023/10/28 04:44:17;;;;;;;9.85;5.28;;;;;;;;;;5117169;28;20747;-32
2023/10/28 04:46:42;;;;;;;14.15;5.32;;;;;;;;;;5117218;28;20057;-32
2023/10/28 04:49:10;;;;;;;14.00;5.60;;;;;;;;;;5117125;28;20168;-32
2023/10/28 04:51:35;;;;;;;14.82;5.13;;;;;;;;;;5116849;28;20289;-32
2023/10/28 04:54:00;;;;;;;12.90;4.80;;;;;;;;;;5117603;28;20025;-32
2023/10/28 04:56:25;;;;;;;8.97;4.93;;;;;;;;;;5116955;28;20638;-32
2023/10/28 04:58:50;;;;;;;10.55;4.85;;;;;;;;;;5117217;28;20391;-32
2023/10/28 05:01:16;;;;;;;8.53;4.60;;;;;;;;;;5116901;28;20019;-32
2023/10/28 05:03:41;;;;;;;8.93;4.60;;;;;;;;;;5117400;28;20023;-32
2023/10/28 05:06:09;;;;;;;9.60;4.75;;;;;;;;;;5116755;28;20249;-32
2023/10/28 05:08:34;;;;;;;9.52;4.50;;;;;;;;;;5116987;28;20189;-31
2023/10/28 05:11:00;;;;;;;10.15;5.05;;;;;;;;;;5117145;28;20098;-32
2023/10/28 05:13:25;;;;;;;9.07;4.50;;;;;;;;;;5116680;28;20382;-32
2023/10/28 05:15:50;;;;;;;9.43;4.53;;;;;;;;;;5116601;28;20253;-32
2023/10/28 05:18:15;;;;;;;8.47;4.80;;;;;;;;;;5116820;28;20253;-33
2023/10/28 05:20:40;;;;;;;7.97;4.97;;;;;;;;;;5116833;28;20799;-32
2023/10/28 05:23:06;;;;;;;13.07;5.20;;;;;;;;;;5116015;28;20026;-32
2023/10/28 05:25:31;;;;;;;12.38;5.05;;;;;;;;;;5116754;28;20249;-32
2023/10/28 05:27:56;;;;;;;11.68;5.22;;;;;;;;;;5116670;28;20457;-32
2023/10/28 05:30:23;;;;;;;12.02;5.30;;;;;;;;;;5117008;28;20027;-32
2023/10/28 05:32:50;;;;;;;12.63;5.45;;;;;;;;;;5116596;28;20016;-32
2023/10/28 05:35:15;;;;;;;10.23;5.50;;;;;;;;;;5116201;28;20374;-32
2023/10/28 05:37:40;;;;;;;13.87;5.60;;;;;;;;;;5097872;28;20015;-31
2023/10/28 05:40:10;;;;;;;13.18;5.50;;;;;;;;;;5097890;28;20265;-32
2023/10/28 05:42:35;;;;;;;13.00;4.90;;;;;;;;;;5116144;28;20026;-32
2023/10/28 05:45:00;;;;;;;9.57;5.40;;;;;;;;;;5116068;28;20315;-32
2023/10/28 05:47:26;;;;;;;6.65;4.85;;;;;;;;;;5116290;28;20527;-32
2023/10/28 05:49:51;;;;;;;12.35;4.93;;;;;;;;;;5116050;28;20015;-31
2023/10/28 05:52:20;;;;;;;9.60;4.70;;;;;;;;;;5115874;28;20027;-32
2023/10/28 05:54:45;;;;;;;12.85;5.03;;;;;;;;;;5116172;28;20733;-32
2023/10/28 05:57:10;;;;;;;13.37;5.17;;;;;;;;;;5115885;28;20016;-32
2023/10/28 05:59:35;;;;;;;10.10;4.50;;;;;;;;;;5115744;28;20260;-31
2023/10/28 06:02:03;;;;;;;10.17;4.63;;;;;;;;;;5115751;28;20249;-31
2023/10/28 06:04:31;;;;;;;9.07;4.55;;;;;;;;;;5115683;28;20261;-31
2023/10/28 06:06:56;;;;;;;7.72;4.35;;;;;;;;;;5115864;28;20023;-32
2023/10/28 06:09:23;;;;;;;12.82;4.47;;;;;;;;;;5115610;28;20411;-33
2023/10/28 06:11:48;;;;;;;8.55;4.35;;;;;;;;;;5115608;28;20355;-32
2023/10/28 06:14:13;;;;;;;9.50;4.47;;;;;;;;;;5115412;28;20027;-32
2023/10/28 06:16:39;;;;;;;12.13;4.17;;;;;;;;;;5116264;28;20362;-33
2023/10/28 06:19:04;;;;;;;9.05;3.80;;;;;;;;;;5115603;28;20336;-33
2023/10/28 06:21:29;;;;;;;10.90;3.90;;;;;;;;;;5115314;28;20020;-32
2023/10/28 06:23:54;;;;;;;6.63;4.07;;;;;;;;;;5115598;28;20016;-32
2023/10/28 06:26:20;;;;;;;14.07;4.37;;;;;;;;;;5115141;28;20834;-33
2023/10/28 06:28:45;;;;;;;8.15;3.67;;;;;;;;;;5115439;28;20249;-32
2023/10/28 06:31:10;;;;;;;9.02;4.07;;;;;;;;;;5115639;28;20019;-31
2023/10/28 06:33:36;;;;;;;8.13;4.00;;;;;;;;;;5116123;28;20439;-33
2023/10/28 06:36:01;;;;;;;7.60;3.40;;;;;;;;;;5095962;28;20023;-32
2023/10/28 06:38:28;;;;;;;10.82;3.80;;;;;;;;;;5115246;28;20660;-32
2023/10/28 06:40:53;;;;;;;6.80;3.53;;;;;;;;;;5115159;28;20030;-32
2023/10/28 06:43:18;;;;;;;7.00;3.47;;;;;;;;;;5114913;28;20023;-32
2023/10/28 06:45:43;;;;;;;12.00;3.43;;;;;;;;;;5114788;28;20253;-32
2023/10/28 06:48:11;;;;;;;9.65;3.65;;;;;;;;;;5114699;28;20275;-32
2023/10/28 06:50:37;;;;;;;8.02;3.50;;;;;;;;;;5096634;28;20040;-32
2023/10/28 06:53:02;;;;;;;12.30;3.37;;;;;;;;;;5115239;28;20019;-32
2023/10/28 06:55:27;;;;;;;9.57;3.28;;;;;;;;;;5114682;28;20264;-32
2023/10/28 06:57:52;;;;;;;11.43;3.50;;;;;;;;;;5114608;28;20086;-32
2023/10/28 07:00:18;;;;;;;10.88;3.33;;;;;;;;;;5115114;28;20344;-32
2023/10/28 07:02:43;;;;;;;13.10;3.40;;;;;;;;;;5114556;28;20026;-32
2023/10/28 07:05:09;;;;;;;11.57;3.20;;;;;;;;;;5114790;28;20062;-32
2023/10/28 07:07:35;;;;;;;14.32;3.28;;;;;;;;;;5114447;28;20023;-32
2023/10/28 07:10:00;;;;;;;14.43;3.45;;;;;;;;;;5114956;28;20046;-33
2023/10/28 07:12:26;;;;;;;14.68;3.60;;;;;;;;;;5114269;28;20458;-32
2023/10/28 07:14:51;;;;;;;8.68;3.30;;;;;;;;;;5114365;28;20450;-32
2023/10/28 07:17:16;;;;;;;13.07;3.67;;;;;;;;;;5095972;28;20027;-33
2023/10/28 07:19:42;;;;;;;10.30;3.63;;;;;;;;;;5114492;28;20115;-32
2023/10/28 07:22:07;;;;;;;8.98;3.30;;;;;;;;;;5114139;28;20254;-32
2023/10/28 07:24:34;;;;;;;10.70;3.27;;;;;;;;;;5114266;28;20076;-32
2023/10/28 07:26:59;;;;;;;9.60;3.42;;;;;;;;;;5114385;28;20754;-32
2023/10/28 07:29:25;;;;;;;13.73;3.53;;;;;;;;;;5114721;28;20054;-32
2023/10/28 07:31:51;;;;;;;12.40;3.47;;;;;;;;;;5113890;28;20781;-32
2023/10/28 07:34:16;;;;;;;9.23;3.40;;;;;;;;;;5114571;28;20020;-32
2023/10/28 07:36:41;;;;;;;7.77;3.20;;;;;;;;;;5113959;28;20577;-33
2023/10/28 07:39:06;;;;;;;7.87;3.17;;;;;;;;;;5114510;28;20264;-32
2023/10/28 07:41:31;;;;;;;15.83;3.70;;;;;;;;;;5113799;28;20265;-32
2023/10/28 07:43:57;;;;;;;7.97;3.30;;;;;;;;;;5114091;28;20291;-32
2023/10/28 07:46:23;;;;;;;8.93;3.63;;;;;;;;;;5114186;28;20020;-32
2023/10/28 07:48:48;;;;;;;7.88;3.10;;;;;;;;;;5113884;28;20072;-32
2023/10/28 07:51:16;;;;;;;7.65;3.20;;;;;;;;;;5114266;28;20122;-32
2023/10/28 07:53:41;;;;;;;10.48;3.58;;;;;;;;;;5114037;28;20012;-32
2023/10/28 07:56:06;;;;;;;11.80;3.47;;;;;;;;;;5113649;28;20375;-32
2023/10/28 07:58:32;;;;;;;11.83;3.43;;;;;;;;;;5113530;28;20254;-32
2023/10/28 08:00:57;;;;;;;10.30;3.87;;;;;;;;;;5113610;28;20303;-32
2023/10/28 08:03:22;;;;;;;9.75;3.75;;;;;;;;;;5113654;28;20348;-32
2023/10/28 08:05:48;;;;;;;8.90;2.97;;;;;;;;;;5113091;28;20376;-32
2023/10/28 08:08:13;;;;;;;14.30;3.22;;;;;;;;;;5095237;28;20027;-32
2023/10/28 08:10:39;;;;;;;9.60;3.50;;;;;;;;;;5113448;28;20073;-32
2023/10/28 08:13:04;;;;;;;11.45;3.50;;;;;;;;;;5113674;28;20016;-33
2023/10/28 08:15:29;;;;;;;10.77;3.10;;;;;;;;;;5113772;28;20012;-32
2023/10/28 08:17:55;;;;;;;8.25;3.17;;;;;;;;;;5113252;28;20020;-32
2023/10/28 08:20:21;;;;;;;10.77;3.78;;;;;;;;;;5113496;28;20031;-32
2023/10/28 08:22:46;;;;;;;9.10;3.07;;;;;;;;;;5113257;28;20027;-32
2023/10/28 08:25:17;;;;;;;12.23;3.05;;;;;;;;;;5113628;28;20608;-32
2023/10/28 08:27:44;;;;;;;8.90;3.20;;;;;;;;;;5113445;28;20031;-32
2023/10/28 08:30:10;;;;;;;8.27;3.25;;;;;;;;;;5113601;28;20090;-32
2023/10/28 08:32:38;;;;;;;9.27;3.00;;;;;;;;;;5113984;28;20022;-33
2023/10/28 08:35:03;;;;;;;8.88;2.83;;;;;;;;;;5113316;28;20091;-31
2023/10/28 08:37:28;;;;;;;15.18;3.55;;;;;;;;;;5113925;28;20036;-32
2023/10/28 08:39:53;;;;;;;12.23;3.27;;;;;;;;;;5113298;28;20476;-31
2023/10/28 08:42:19;;;;;;;9.98;3.15;;;;;;;;;;5113815;28;20254;-31
2023/10/28 08:44:44;;;;;;;10.48;3.78;;;;;;;;;;5113595;28;20025;-31
2023/10/28 08:47:10;;;;;;;8.50;2.95;;;;;;;;;;5113594;28;20016;-32
2023/10/28 08:49:39;;;;;;;7.88;2.80;;;;;;;;;;5113389;28;20023;-31
2023/10/28 08:52:06;;;;;;;8.07;2.65;;;;;;;;;;5113265;28;20052;-33
2023/10/28 08:54:32;;;;;;;7.25;2.40;;;;;;;;;;5112946;28;20080;-35
2023/10/28 08:56:59;;;;;;;10.80;2.75;;;;;;;;;;5113387;28;20016;-32
2023/10/28 08:59:26;;;;;;;13.60;2.85;;;;;;;;;;5116019;28;20015;-33
2023/10/28 09:01:52;;;;;;;18.10;3.05;;;;;;;;;;5116970;28;20024;-32
2023/10/28 09:04:21;;;;;;;10.07;2.60;;;;;;;;;;5116909;28;20026;-32
2023/10/28 09:06:46;;;;;;;13.43;2.85;;;;;;;;;;5117223;28;20454;-32
2023/10/28 09:09:12;;;;;;;6.70;2.55;;;;;;;;;;5117196;28;20019;-32
2023/10/28 09:11:38;;;;;;;10.35;2.47;;;;;;;;;;5116848;28;20026;-31
2023/10/28 09:14:07;;;;;;;9.32;2.35;;;;;;;;;;5115178;28;20020;-32
2023/10/28 09:16:33;;;;;;;8.00;2.45;;;;;;;;;;5097306;28;20069;-31
2023/10/28 09:18:58;;;;;;;12.48;2.53;;;;;;;;;;5115613;28;20020;-32
2023/10/28 09:21:24;;;;;;;11.00;2.60;;;;;;;;;;5096228;28;20576;-31
2023/10/28 09:23:49;;;;;;;10.38;2.80;;;;;;;;;;5115444;28;20023;-32
2023/10/28 09:26:14;;;;;;;10.00;3.03;;;;;;;;;;5116751;28;20016;-32
2023/10/28 09:28:43;;;;;;;14.77;2.83;;;;;;;;;;5116555;28;20039;-32
2023/10/28 09:31:09;;;;;;;8.73;2.47;;;;;;;;;;5116680;28;20145;-32
2023/10/28 09:33:34;;;;;;;11.05;2.60;;;;;;;;;;5116308;28;20064;-32
2023/10/28 09:35:59;;;;;;;15.90;2.60;;;;;;;;;;5098122;28;20015;-32
2023/10/28 09:38:25;;;;;;;14.38;2.78;;;;;;;;;;5116350;28;20066;-33
2023/10/28 09:40:50;;;;;;;10.43;2.50;;;;;;;;;;5115480;28;20027;-32
2023/10/28 09:43:15;;;;;;;8.43;2.15;;;;;;;;;;5116199;28;20038;-32
2023/10/28 09:45:45;;;;;;;15.13;2.30;;;;;;;;;;5116764;28;20016;-32
2023/10/28 09:48:14;;;;;;;7.63;2.28;;;;;;;;;;5097714;28;20069;-32
2023/10/28 09:50:50;;;;;;;8.68;2.30;;;;;;;;;;5116020;28;20092;-32
2023/10/28 09:53:16;;;;;;;13.70;3.10;;;;;;;;;;5116270;28;20095;-32
2023/10/28 09:55:43;;;;;;;14.23;2.55;;;;;;;;;;5115924;28;20020;-32
2023/10/28 09:58:11;;;;;;;10.23;2.40;;;;;;;;;;5115740;28;20015;-32
2023/10/28 10:00:37;;;;;;;10.25;2.60;;;;;;;;;;5115708;28;20458;-32
2023/10/28 10:03:03;;;;;;;10.27;2.95;;;;;;;;;;5115771;28;20495;-31
2023/10/28 10:05:40;;;;;;;10.30;2.30;;;;;;;;;;5115721;28;20049;-32
2023/10/28 10:08:15;;;;;;;10.52;2.45;;;;;;;;;;5116117;28;20088;-34
2023/10/28 10:10:44;;;;;;;9.80;2.75;;;;;;;;;;5115516;28;20355;-32
2023/10/28 10:13:09;;;;;;;8.93;2.17;;;;;;;;;;5115597;28;20454;-32
2023/10/28 10:15:35;;;;;;;10.82;2.42;;;;;;;;;;5116090;28;20041;-32
2023/10/28 10:18:10;;;;;;;8.07;2.72;;;;;;;;;;5116106;28;20025;-32
2023/10/28 10:20:36;;;;;;;8.80;2.40;;;;;;;;;;5097166;28;20459;-32
2023/10/28 10:23:02;;;;;;;9.68;2.47;;;;;;;;;;5080623;28;20027;-32
2023/10/28 10:25:35;;;;;;;10.10;2.30;;;;;;;;;;5115331;28;20020;-32
2023/10/28 10:28:09;;;;;;;10.73;2.50;;;;;;;;;;5114651;28;20031;-32
2023/10/28 10:30:35;;;;;;;9.68;2.40;;;;;;;;;;5115897;28;20024;-33
2023/10/28 10:33:00;;;;;;;9.68;2.42;;;;;;;;;;5115210;28;20099;-33
2023/10/28 10:35:30;;;;;;;10.80;2.60;;;;;;;;;;5115260;28;20011;-34
2023/10/28 10:38:04;;;;;;;12.27;2.95;;;;;;;;;;5115577;28;20700;-33
2023/10/28 10:40:31;;;;;;;8.23;2.28;;;;;;;;;;5115434;28;20447;-34
2023/10/28 10:42:57;;;;;;;7.03;2.67;;;;;;;;;;5115886;28;20072;-34
2023/10/28 10:45:23;;;;;;;15.32;2.85;;;;;;;;;;5115533;28;20498;-34
2023/10/28 10:47:48;;;;;;;11.27;2.60;;;;;;;;;;5114897;28;20091;-33
2023/10/28 10:50:14;;;;;;;6.68;2.42;;;;;;;;;;5113496;28;20055;-33
2023/10/28 10:52:42;;;;;;;8.50;2.28;;;;;;;;;;5114609;28;20019;-34
2023/10/28 10:55:08;;;;;;;9.38;2.50;;;;;;;;;;5114179;28;20016;-34
2023/10/28 10:57:35;;;;;;;9.40;2.40;;;;;;;;;;5113338;28;20024;-34
2023/10/28 11:00:10;;;;;;;8.82;2.60;;;;;;;;;;5079258;28;20019;-34
2023/10/28 11:02:35;;;;;;;8.57;2.47;;;;;;;;;;5114192;28;20042;-34
2023/10/28 11:05:01;;;;;;;8.37;2.40;;;;;;;;;;5115773;28;20055;-33
2023/10/28 11:07:28;;;;;;;10.13;2.58;;;;;;;;;;5115791;28;20325;-34
2023/10/28 11:09:55;;;;;;;6.47;2.25;;;;;;;;;;5114688;28;20031;-33
2023/10/28 11:12:23;;;;;;;6.93;2.47;;;;;;;;;;5114849;28;20462;-34
2023/10/28 11:14:48;;;;;;;6.65;2.38;;;;;;;;;;5096310;28;20020;-33
2023/10/28 11:17:14;;;;;;;10.38;2.63;;;;;;;;;;5114564;28;20011;-34
2023/10/28 11:19:46;;;;;;;12.27;2.85;;;;;;;;;;5114505;28;20356;-33
2023/10/28 11:22:12;;;;;;;8.85;3.10;;;;;;;;;;5096264;28;20079;-33
2023/10/28 11:24:38;;;;;;;8.73;2.05;;;;;;;;;;5114340;28;20019;-33
2023/10/28 11:27:03;;;;;;;5.95;2.40;;;;;;;;;;5114266;28;20023;-33
2023/10/28 11:29:28;;;;;;;8.40;2.38;;;;;;;;;;5096314;28;20350;-33
2023/10/28 11:31:54;;;;;;;10.18;2.50;;;;;;;;;;5096256;28;20019;-32
2023/10/28 11:34:20;;;;;;;15.02;2.90;;;;;;;;;;5114781;28;20046;-33
2023/10/28 11:36:45;;;;;;;10.10;2.53;;;;;;;;;;5114179;28;20454;-33
2023/10/28 11:39:13;;;;;;;15.23;2.40;;;;;;;;;;5096739;28;20261;-33
2023/10/28 11:41:42;;;;;;;7.60;2.42;;;;;;;;;;5096072;28;20352;-33
2023/10/28 11:44:10;;;;;;;7.80;2.40;;;;;;;;;;5114268;28;20011;-33
2023/10/28 11:46:35;;;;;;;9.20;2.30;;;;;;;;;;5114192;28;20377;-33
2023/10/28 11:49:00;;;;;;;6.78;2.30;;;;;;;;;;5114566;28;20012;-32
2023/10/28 11:51:27;;;;;;;8.32;2.25;;;;;;;;;;5113694;28;20428;-32
2023/10/28 11:53:53;;;;;;;6.88;2.45;;;;;;;;;;5113963;28;20016;-33
2023/10/28 11:56:21;;;;;;;6.53;2.15;;;;;;;;;;5114087;28;20056;-33
2023/10/28 11:58:49;;;;;;;11.52;2.80;;;;;;;;;;5114125;28;20038;-33
2023/10/28 12:01:14;;;;;;;13.50;2.50;;;;;;;;;;5113976;28;20026;-33
2023/10/28 12:03:39;;;;;;;12.98;2.83;;;;;;;;;;5114154;28;20400;-33
2023/10/28 12:06:05;;;;;;;8.77;2.08;;;;;;;;;;5113730;28;20144;-33
2023/10/28 12:08:30;;;;;;;6.78;2.10;;;;;;;;;;5113642;28;20020;-33
2023/10/28 12:10:55;;;;;;;8.43;2.30;;;;;;;;;;5113727;28;20069;-33
2023/10/28 12:13:21;;;;;;;9.90;2.60;;;;;;;;;;5113669;28;20398;-33
2023/10/28 12:15:46;;;;;;;14.85;2.45;;;;;;;;;;5114233;28;20098;-33
2023/10/28 12:18:11;;;;;;;9.98;2.15;;;;;;;;;;5078718;28;20435;-33
2023/10/28 12:20:37;;;;;;;11.20;2.20;;;;;;;;;;5113738;28;20023;-33
2023/10/28 12:23:03;;;;;;;9.32;2.28;;;;;;;;;;5113391;28;20032;-33
2023/10/28 12:25:28;;;;;;;11.73;2.60;;;;;;;;;;5114157;28;20157;-33
2023/10/28 12:27:53;;;;;;;10.10;2.42;;;;;;;;;;5113638;28;20386;-32
2023/10/28 12:30:19;;;;;;;8.70;2.80;;;;;;;;;;5095244;28;20011;-33
2023/10/28 12:32:44;;;;;;;8.63;2.35;;;;;;;;;;5095594;28;20348;-33
2023/10/28 12:35:09;;;;;;;9.20;2.25;;;;;;;;;;5116460;28;20103;-33
2023/10/28 12:37:35;;;;;;;11.02;2.70;;;;;;;;;;5115662;28;20020;-33
2023/10/28 12:40:00;;;;;;;10.35;2.63;;;;;;;;;;5115285;28;20012;-33
2023/10/28 12:42:25;;;;;;;8.98;2.20;;;;;;;;;;5115161;28;20099;-33
2023/10/28 12:44:50;;;;;;;12.35;2.58;;;;;;;;;;5117032;28;20011;-32
2023/10/28 12:47:16;;;;;;;14.60;2.30;;;;;;;;;;5117353;28;20026;-33
2023/10/28 12:49:41;;;;;;;7.70;2.20;;;;;;;;;;5116908;28;20669;-33
2023/10/28 12:52:06;;;;;;;12.00;2.50;;;;;;;;;;5117694;28;20023;-33
2023/10/28 12:54:32;;;;;;;10.85;2.90;;;;;;;;;;5117209;28;20022;-33
2023/10/28 12:56:57;;;;;;;10.45;2.67;;;;;;;;;;5117952;28;20049;-33
2023/10/28 12:59:23;;;;;;;11.13;2.60;;;;;;;;;;5117703;28;20106;-33
2023/10/28 13:01:48;;;;;;;18.27;3.13;;;;;;;;;;5117332;28;20022;-33
2023/10/28 13:04:13;;;;;;;16.45;3.25;;;;;;;;;;5117530;28;20267;-33
2023/10/28 13:06:39;;;;;;;9.80;2.75;;;;;;;;;;5117202;28;20436;-33
2023/10/28 13:09:06;;;;;;;11.07;2.90;;;;;;;;;;5117135;28;20019;-33
2023/10/28 13:11:31;;;;;;;12.98;2.60;;;;;;;;;;5117003;28;20449;-33
2023/10/28 13:13:56;;;;;;;14.38;3.00;;;;;;;;;;5116839;28;20016;-33
2023/10/28 13:16:21;;;;;;;14.05;2.95;;;;;;;;;;5115984;28;20522;-33
2023/10/28 13:18:47;;;;;;;13.47;3.10;;;;;;;;;;5115888;28;20020;-33
2023/10/28 13:21:15;;;;;;;14.00;2.50;;;;;;;;;;5096196;28;20787;-33
2023/10/28 13:23:41;;;;;;;12.02;2.97;;;;;;;;;;5116517;28;20261;-33
2023/10/28 13:26:13;;;;;;;14.30;3.03;;;;;;;;;;5098047;28;20016;-33
2023/10/28 13:28:38;;;;;;;13.30;2.85;;;;;;;;;;5116365;28;20028;-33
2023/10/28 13:31:04;;;;;;;17.33;2.78;;;;;;;;;;5116346;28;20026;-33
2023/10/28 13:33:29;;;;;;;11.80;2.55;;;;;;;;;;5116684;28;20512;-33
2023/10/28 13:35:54;;;;;;;16.98;3.00;;;;;;;;;;5116998;28;20023;-33
2023/10/28 13:38:19;;;;;;;14.80;2.60;;;;;;;;;;5116392;28;20022;-33
2023/10/28 13:40:45;;;;;;;14.18;2.85;;;;;;;;;;5116292;28;20291;-33
2023/10/28 13:43:10;;;;;;;17.52;2.75;;;;;;;;;;5115261;28;20050;-33
2023/10/28 13:45:35;;;;;;;15.18;2.90;;;;;;;;;;5115643;28;20024;-33
2023/10/28 13:48:00;;;;;;;9.77;2.63;;;;;;;;;;5116219;28;20055;-33
2023/10/28 13:50:26;;;;;;;14.75;2.88;;;;;;;;;;5115919;28;20838;-33
2023/10/28 13:52:52;;;;;;;13.02;2.90;;;;;;;;;;5116401;28;20007;-33
2023/10/28 13:55:18;;;;;;;13.63;2.70;;;;;;;;;;5116087;28;20485;-33
2023/10/28 13:57:43;;;;;;;14.30;2.90;;;;;;;;;;5116223;28;20362;-33
2023/10/28 14:00:13;;;;;;;13.90;2.95;;;;;;;;;;5116077;28;20466;-32
2023/10/28 14:02:38;;;;;;;14.85;2.85;;;;;;;;;;5116085;28;20466;-33
2023/10/28 14:05:04;;;;;;;18.80;3.70;;;;;;;;;;5116183;28;20094;-33
2023/10/28 14:07:29;;;;;;;15.70;3.08;;;;;;;;;;5116219;28;20022;-33
2023/10/28 14:09:54;;;;;;;11.73;2.80;;;;;;;;;;5115887;28;20090;-33
2023/10/28 14:12:19;;;;;;;14.38;3.17;;;;;;;;;;5115865;28;20269;-33
2023/10/28 14:14:45;;;;;;;14.02;3.30;;;;;;;;;;5115738;28;20084;-33
2023/10/28 14:17:10;;;;;;;15.53;2.73;;;;;;;;;;5116148;28;20358;-32
2023/10/28 14:19:36;;;;;;;19.52;2.80;;;;;;;;;;5115600;28;20246;-33
2023/10/28 14:22:02;;;;;;;13.43;2.80;;;;;;;;;;5115724;28;20470;-33
2023/10/28 14:24:29;;;;;;;17.73;3.38;;;;;;;;;;5116517;28;20040;-33
2023/10/28 14:26:55;;;;;;;16.17;2.53;;;;;;;;;;5116023;28;20052;-32